createdAt,value
2018-04-15T00:00:27.071Z,0.00
2018-04-15T00:01:27.113Z,0.00
2018-04-15T00:02:27.043Z,0.00
2018-04-15T00:03:27.069Z,0.00
2018-04-15T00:04:27.025Z,0.00
2018-04-15T00:05:26.969Z,0.00
2018-04-15T00:06:27.044Z,0.00
2018-04-15T00:07:26.941Z,0.00
2018-04-15T00:08:26.916Z,0.00
2018-04-15T00:09:26.920Z,0.00
2018-04-15T00:10:26.892Z,0.00
2018-04-15T00:11:26.879Z,0.00
2018-04-15T00:12:26.865Z,0.00
2018-04-15T00:13:26.850Z,0.00
2018-04-15T00:14:26.797Z,0.00
2018-04-15T00:15:26.799Z,0.00
2018-04-15T00:16:26.758Z,0.00
2018-04-15T00:17:26.751Z,0.00
2018-04-15T00:18:26.713Z,0.00
2018-04-15T00:19:26.750Z,0.00
2018-04-15T00:20:26.736Z,0.00
2018-04-15T00:21:26.660Z,0.00
2018-04-15T00:22:26.659Z,0.00
2018-04-15T00:23:26.670Z,0.00
2018-04-15T00:24:26.637Z,0.00
2018-04-15T00:25:26.590Z,0.00
2018-04-15T00:26:26.583Z,0.00
2018-04-15T00:27:26.584Z,0.00
2018-04-15T00:28:26.573Z,0.00
2018-04-15T00:29:26.547Z,0.00
2018-04-15T00:30:26.497Z,0.00
2018-04-15T00:31:26.494Z,0.00
2018-04-15T00:32:26.505Z,0.00
2018-04-15T00:33:26.460Z,0.00
2018-04-15T00:34:26.424Z,0.00
2018-04-15T00:35:26.404Z,0.00
2018-04-15T00:36:26.365Z,0.00
2018-04-15T00:37:26.349Z,0.00
2018-04-15T00:38:26.348Z,0.00
2018-04-15T00:39:26.292Z,0.00
2018-04-15T00:40:26.285Z,0.00
2018-04-15T00:41:26.280Z,0.00
2018-04-15T00:42:26.261Z,0.00
2018-04-15T00:43:26.217Z,0.00
2018-04-15T00:44:26.216Z,0.00
2018-04-15T00:45:26.207Z,0.00
2018-04-15T00:46:26.180Z,0.00
2018-04-15T00:47:26.123Z,0.00
2018-04-15T00:48:26.230Z,0.00
2018-04-15T00:49:26.122Z,0.00
2018-04-15T00:50:26.070Z,0.00
2018-04-15T00:51:26.090Z,0.00
2018-04-15T00:52:26.111Z,0.00
2018-04-15T00:53:26.040Z,0.00
2018-04-15T00:54:25.979Z,0.00
2018-04-15T00:55:25.990Z,0.00
2018-04-15T00:56:25.951Z,0.00
2018-04-15T00:57:25.956Z,0.00
2018-04-15T00:58:25.945Z,0.00
2018-04-15T00:59:25.926Z,0.00
2018-04-15T01:00:25.922Z,0.00
2018-04-15T01:01:25.848Z,0.00
2018-04-15T01:02:25.881Z,0.00
2018-04-15T01:03:25.833Z,0.00
2018-04-15T01:04:25.808Z,0.00
2018-04-15T01:05:25.855Z,0.00
2018-04-15T01:06:25.757Z,0.00
2018-04-15T01:07:25.732Z,0.00
2018-04-15T01:08:25.753Z,0.00
2018-04-15T01:09:25.724Z,0.00
2018-04-15T01:10:25.661Z,0.00
2018-04-15T01:11:25.691Z,0.00
2018-04-15T01:12:25.663Z,0.00
2018-04-15T01:13:25.620Z,0.00
2018-04-15T01:14:25.683Z,0.00
2018-04-15T01:15:25.590Z,0.00
2018-04-15T01:16:25.578Z,0.00
2018-04-15T01:17:25.542Z,0.00
2018-04-15T01:18:25.576Z,0.00
2018-04-15T01:19:25.479Z,0.00
2018-04-15T01:20:25.471Z,0.00
2018-04-15T01:21:25.451Z,0.00
2018-04-15T01:22:25.457Z,0.00
2018-04-15T01:23:25.424Z,0.00
2018-04-15T01:24:25.432Z,0.00
2018-04-15T01:25:25.422Z,0.00
2018-04-15T01:26:25.364Z,0.00
2018-04-15T01:27:25.383Z,0.00
2018-04-15T01:28:25.345Z,0.00
2018-04-15T01:29:25.281Z,0.00
2018-04-15T01:30:25.263Z,0.00
2018-04-15T01:31:25.293Z,0.00
2018-04-15T01:32:25.292Z,0.00
2018-04-15T01:33:25.225Z,0.00
2018-04-15T01:34:25.191Z,0.00
2018-04-15T01:35:25.166Z,0.00
2018-04-15T01:36:25.135Z,0.00
2018-04-15T01:37:25.182Z,0.00
2018-04-15T01:38:25.133Z,0.00
2018-04-15T01:39:25.070Z,0.00
2018-04-15T01:40:25.070Z,0.00
2018-04-15T01:41:25.131Z,0.00
2018-04-15T01:42:25.039Z,0.00
2018-04-15T01:43:25.043Z,0.00
2018-04-15T01:44:24.993Z,0.00
2018-04-15T01:45:24.971Z,0.00
2018-04-15T01:46:25.036Z,0.00
2018-04-15T01:47:24.977Z,0.00
2018-04-15T01:48:24.942Z,0.00
2018-04-15T01:49:24.898Z,0.00
2018-04-15T01:50:24.896Z,0.00
2018-04-15T01:51:24.841Z,0.00
2018-04-15T01:52:24.928Z,0.00
2018-04-15T01:53:24.926Z,0.00
2018-04-15T01:54:24.875Z,0.00
2018-04-15T01:55:24.790Z,0.00
2018-04-15T01:56:24.768Z,0.00
2018-04-15T01:57:24.811Z,0.00
2018-04-15T01:58:24.731Z,0.00
2018-04-15T01:59:24.757Z,0.00
2018-04-15T02:00:24.652Z,0.00
2018-04-15T02:01:24.666Z,0.00
2018-04-15T02:02:24.641Z,0.00
2018-04-15T02:03:24.683Z,0.00
2018-04-15T02:04:24.603Z,0.00
2018-04-15T02:05:24.553Z,0.00
2018-04-15T02:06:24.529Z,0.00
2018-04-15T02:07:24.523Z,0.00
2018-04-15T02:08:24.530Z,0.00
2018-04-15T02:09:24.519Z,0.00
2018-04-15T02:10:24.474Z,0.00
2018-04-15T02:11:24.441Z,0.00
2018-04-15T02:12:24.475Z,0.00
2018-04-15T02:13:24.440Z,0.00
2018-04-15T02:14:24.383Z,0.00
2018-04-15T02:15:24.362Z,0.00
2018-04-15T02:16:24.358Z,0.00
2018-04-15T02:17:24.360Z,0.00
2018-04-15T02:18:24.345Z,0.00
2018-04-15T02:19:24.281Z,0.00
2018-04-15T02:20:24.280Z,0.00
2018-04-15T02:21:24.254Z,0.00
2018-04-15T02:22:24.281Z,0.00
2018-04-15T02:23:24.228Z,0.00
2018-04-15T02:24:24.202Z,0.00
2018-04-15T02:25:24.193Z,0.00
2018-04-15T02:26:24.131Z,0.00
2018-04-15T02:27:24.129Z,0.00
2018-04-15T02:28:24.138Z,0.00
2018-04-15T02:29:24.117Z,0.00
2018-04-15T02:30:24.075Z,0.00
2018-04-15T02:31:24.039Z,0.00
2018-04-15T02:32:23.996Z,0.00
2018-04-15T02:33:24.083Z,0.00
2018-04-15T02:34:24.005Z,0.00
2018-04-15T02:35:23.972Z,0.00
2018-04-15T02:36:23.948Z,0.00
2018-04-15T02:37:23.953Z,0.00
2018-04-15T02:38:23.936Z,0.00
2018-04-15T02:39:23.921Z,0.00
2018-04-15T02:40:23.856Z,0.00
2018-04-15T02:41:23.857Z,0.00
2018-04-15T02:42:23.892Z,0.00
2018-04-15T02:43:23.797Z,0.00
2018-04-15T02:44:23.778Z,0.00
2018-04-15T02:45:23.739Z,0.00
2018-04-15T02:46:23.740Z,0.00
2018-04-15T02:47:23.828Z,0.00
2018-04-15T02:48:23.687Z,0.00
2018-04-15T02:49:23.710Z,0.00
2018-04-15T02:50:23.660Z,0.00
2018-04-15T02:51:23.677Z,0.00
2018-04-15T02:52:23.667Z,0.00
2018-04-15T02:53:23.615Z,0.00
2018-04-15T02:54:23.590Z,0.00
2018-04-15T02:55:23.600Z,0.00
2018-04-15T02:56:23.634Z,0.00
2018-04-15T02:57:23.549Z,0.00
2018-04-15T02:58:23.509Z,0.00
2018-04-15T02:59:23.501Z,0.00
2018-04-15T03:00:23.475Z,0.00
2018-04-15T03:01:23.437Z,0.00
2018-04-15T03:02:23.413Z,0.00
2018-04-15T03:03:23.382Z,0.00
2018-04-15T03:04:23.389Z,0.00
2018-04-15T03:05:23.334Z,0.00
2018-04-15T03:06:23.359Z,0.00
2018-04-15T03:07:23.295Z,0.00
2018-04-15T03:08:23.358Z,0.00
2018-04-15T03:09:23.254Z,0.00
2018-04-15T03:10:23.321Z,0.00
2018-04-15T03:11:23.273Z,0.00
2018-04-15T03:12:23.229Z,0.00
2018-04-15T03:13:23.208Z,0.00
2018-04-15T03:14:23.175Z,0.00
2018-04-15T03:15:23.138Z,0.00
2018-04-15T03:16:23.128Z,0.00
2018-04-15T03:17:23.122Z,0.00
2018-04-15T03:18:23.082Z,0.00
2018-04-15T03:19:23.063Z,0.00
2018-04-15T03:20:23.048Z,0.00
2018-04-15T03:21:23.126Z,0.00
2018-04-15T03:22:23.008Z,0.00
2018-04-15T03:23:22.998Z,0.00
2018-04-15T03:24:22.979Z,0.00
2018-04-15T03:25:22.956Z,0.00
2018-04-15T03:26:22.958Z,0.00
2018-04-15T03:27:22.913Z,0.00
2018-04-15T03:28:22.882Z,0.00
2018-04-15T03:29:22.862Z,0.00
2018-04-15T03:30:22.864Z,0.00
2018-04-15T03:31:22.822Z,0.00
2018-04-15T03:32:22.817Z,0.00
2018-04-15T03:33:22.813Z,0.00
2018-04-15T03:34:22.772Z,0.00
2018-04-15T03:35:22.737Z,0.00
2018-04-15T03:36:22.726Z,0.00
2018-04-15T03:37:22.775Z,0.00
2018-04-15T03:38:22.674Z,0.00
2018-04-15T03:39:22.664Z,0.00
2018-04-15T03:40:22.651Z,0.00
2018-04-15T03:41:22.589Z,0.00
2018-04-15T03:42:22.604Z,0.00
2018-04-15T03:43:22.559Z,0.00
2018-04-15T03:44:22.582Z,0.00
2018-04-15T03:45:22.539Z,0.00
2018-04-15T03:46:22.522Z,0.00
2018-04-15T03:47:22.499Z,0.00
2018-04-15T03:48:22.496Z,0.00
2018-04-15T03:49:22.487Z,0.00
2018-04-15T03:50:22.451Z,0.00
2018-04-15T03:51:22.427Z,0.00
2018-04-15T03:52:22.404Z,0.00
2018-04-15T03:53:22.349Z,0.00
2018-04-15T03:54:22.354Z,0.00
2018-04-15T03:55:22.323Z,0.00
2018-04-15T03:56:22.326Z,0.00
2018-04-15T03:57:22.288Z,0.00
2018-04-15T03:58:22.277Z,0.00
2018-04-15T03:59:22.236Z,0.00
2018-04-15T04:00:22.243Z,0.00
2018-04-15T04:01:22.215Z,0.00
2018-04-15T04:02:22.172Z,0.00
2018-04-15T04:03:22.183Z,0.00
2018-04-15T04:04:22.146Z,0.00
2018-04-15T04:05:22.123Z,0.00
2018-04-15T04:06:22.081Z,0.00
2018-04-15T04:07:22.118Z,0.00
2018-04-15T04:08:22.039Z,0.00
2018-04-15T04:09:22.045Z,0.00
2018-04-15T04:10:22.068Z,0.00
2018-04-15T04:11:22.039Z,0.00
2018-04-15T04:12:21.982Z,0.00
2018-04-15T04:13:21.956Z,0.00
2018-04-15T04:14:21.997Z,0.00
2018-04-15T04:15:21.890Z,0.00
2018-04-15T04:16:21.869Z,0.00
2018-04-15T04:17:21.880Z,0.00
2018-04-15T04:18:21.832Z,0.00
2018-04-15T04:19:21.859Z,0.00
2018-04-15T04:20:21.824Z,0.00
2018-04-15T04:21:21.760Z,0.00
2018-04-15T04:22:21.826Z,0.00
2018-04-15T04:23:21.738Z,0.00
2018-04-15T04:24:21.754Z,0.00
2018-04-15T04:25:21.734Z,0.00
2018-04-15T04:26:21.687Z,0.00
2018-04-15T04:27:21.716Z,0.00
2018-04-15T04:28:21.660Z,0.00
2018-04-15T04:29:21.592Z,0.00
2018-04-15T04:30:21.593Z,0.00
2018-04-15T04:31:21.586Z,5.63
2018-04-15T04:32:21.532Z,5.63
2018-04-15T04:33:21.528Z,5.63
2018-04-15T04:34:21.530Z,5.63
2018-04-15T04:35:21.526Z,5.63
2018-04-15T04:36:21.477Z,5.63
2018-04-15T04:37:21.458Z,5.63
2018-04-15T04:38:21.463Z,5.63
2018-04-15T04:39:21.470Z,5.63
2018-04-15T04:40:21.372Z,5.63
2018-04-15T04:41:21.459Z,5.63
2018-04-15T04:42:21.373Z,5.63
2018-04-15T04:43:21.331Z,5.63
2018-04-15T04:44:21.300Z,11.25
2018-04-15T04:45:21.286Z,11.25
2018-04-15T04:46:21.249Z,11.25
2018-04-15T04:47:21.256Z,11.25
2018-04-15T04:48:21.223Z,11.25
2018-04-15T04:49:21.233Z,16.88
2018-04-15T04:50:21.219Z,16.88
2018-04-15T04:51:21.152Z,16.88
2018-04-15T04:52:21.188Z,16.88
2018-04-15T04:53:21.142Z,16.88
2018-04-15T04:54:21.163Z,22.50
2018-04-15T04:55:21.055Z,22.50
2018-04-15T04:56:21.105Z,22.50
2018-04-15T04:57:21.083Z,28.13
2018-04-15T04:58:21.009Z,28.13
2018-04-15T04:59:22.670Z,33.75
2018-04-15T05:00:21.000Z,33.75
2018-04-15T05:01:20.999Z,39.38
2018-04-15T05:02:20.958Z,45.00
2018-04-15T05:03:20.932Z,50.63
2018-04-15T05:04:20.900Z,50.63
2018-04-15T05:05:20.893Z,56.25
2018-04-15T05:06:20.886Z,56.25
2018-04-15T05:07:20.835Z,56.25
2018-04-15T05:08:20.884Z,56.25
2018-04-15T05:09:20.777Z,56.25
2018-04-15T05:10:20.757Z,50.63
2018-04-15T05:11:20.858Z,50.63
2018-04-15T05:12:20.791Z,50.63
2018-04-15T05:13:20.733Z,50.63
2018-04-15T05:14:20.716Z,50.63
2018-04-15T05:15:20.683Z,50.63
2018-04-15T05:16:20.656Z,56.25
2018-04-15T05:17:20.670Z,56.25
2018-04-15T05:18:20.694Z,56.25
2018-04-15T05:19:20.769Z,56.25
2018-04-15T05:20:20.578Z,61.88
2018-04-15T05:21:20.576Z,61.88
2018-04-15T05:22:20.527Z,61.88
2018-04-15T05:23:20.538Z,67.50
2018-04-15T05:24:20.548Z,73.13
2018-04-15T05:25:20.468Z,73.13
2018-04-15T05:26:20.492Z,78.75
2018-04-15T05:27:20.462Z,84.38
2018-04-15T05:28:20.582Z,90.00
2018-04-15T05:29:20.557Z,95.63
2018-04-15T05:30:21.874Z,101.25
2018-04-15T05:31:20.320Z,106.88
2018-04-15T05:32:20.383Z,112.50
2018-04-15T05:33:20.359Z,123.75
2018-04-15T05:34:20.287Z,135.00
2018-04-15T05:35:23.160Z,146.25
2018-04-15T05:36:20.285Z,151.88
2018-04-15T05:37:20.206Z,163.13
2018-04-15T05:38:20.208Z,168.75
2018-04-15T05:39:20.202Z,174.38
2018-04-15T05:40:20.647Z,180.00
2018-04-15T05:41:20.122Z,185.63
2018-04-15T05:42:20.145Z,191.25
2018-04-15T05:43:20.671Z,196.88
2018-04-15T05:44:20.125Z,196.88
2018-04-15T05:45:20.065Z,202.50
2018-04-15T05:46:20.055Z,208.13
2018-04-15T05:47:20.013Z,202.50
2018-04-15T05:48:20.005Z,202.50
2018-04-15T05:49:20.018Z,196.88
2018-04-15T05:50:19.945Z,196.88
2018-04-15T05:51:19.928Z,191.25
2018-04-15T05:52:20.675Z,185.63
2018-04-15T05:53:19.905Z,180.00
2018-04-15T05:54:19.913Z,174.38
2018-04-15T05:55:19.848Z,168.75
2018-04-15T05:56:19.832Z,168.75
2018-04-15T05:57:19.830Z,163.13
2018-04-15T05:58:19.788Z,163.13
2018-04-15T05:59:19.776Z,163.13
2018-04-15T06:00:19.770Z,163.13
2018-04-15T06:01:19.788Z,163.13
2018-04-15T06:02:19.742Z,163.13
2018-04-15T06:03:19.735Z,163.13
2018-04-15T06:04:19.693Z,168.75
2018-04-15T06:05:19.693Z,174.38
2018-04-15T06:06:19.701Z,180.00
2018-04-15T06:07:19.652Z,191.25
2018-04-15T06:08:19.600Z,196.88
2018-04-15T06:09:19.610Z,202.50
2018-04-15T06:10:19.549Z,202.50
2018-04-15T06:11:19.536Z,202.50
2018-04-15T06:12:19.546Z,202.50
2018-04-15T06:13:19.523Z,202.50
2018-04-15T06:14:19.514Z,196.88
2018-04-15T06:15:19.477Z,185.63
2018-04-15T06:16:19.487Z,185.63
2018-04-15T06:17:19.445Z,180.00
2018-04-15T06:18:19.413Z,174.38
2018-04-15T06:19:19.432Z,180.00
2018-04-15T06:20:20.191Z,168.75
2018-04-15T06:21:19.342Z,168.75
2018-04-15T06:22:19.331Z,174.38
2018-04-15T06:23:19.354Z,174.38
2018-04-15T06:24:19.300Z,174.38
2018-04-15T06:25:19.256Z,180.00
2018-04-15T06:26:19.266Z,191.25
2018-04-15T06:27:19.239Z,196.88
2018-04-15T06:28:19.187Z,202.50
2018-04-15T06:29:19.221Z,213.75
2018-04-15T06:30:19.201Z,225.00
2018-04-15T06:31:19.152Z,230.63
2018-04-15T06:32:19.151Z,241.88
2018-04-15T06:33:19.104Z,264.38
2018-04-15T06:34:19.110Z,281.25
2018-04-15T06:35:19.082Z,298.13
2018-04-15T06:36:19.095Z,315.00
2018-04-15T06:37:19.065Z,315.00
2018-04-15T06:38:19.990Z,315.00
2018-04-15T06:39:19.016Z,320.63
2018-04-15T06:40:19.056Z,320.63
2018-04-15T06:41:18.947Z,354.38
2018-04-15T06:42:18.986Z,354.38
2018-04-15T06:43:18.911Z,360.00
2018-04-15T06:44:18.979Z,376.88
2018-04-15T06:45:19.084Z,376.88
2018-04-15T06:46:18.962Z,382.50
2018-04-15T06:47:18.921Z,388.13
2018-04-15T06:48:18.847Z,348.75
2018-04-15T06:49:18.842Z,337.50
2018-04-15T06:50:18.923Z,405.00
2018-04-15T06:51:18.791Z,444.38
2018-04-15T06:52:18.849Z,348.75
2018-04-15T06:53:18.716Z,337.50
2018-04-15T06:54:18.795Z,343.13
2018-04-15T06:55:18.709Z,343.13
2018-04-15T06:56:18.736Z,315.00
2018-04-15T06:57:18.684Z,315.00
2018-04-15T06:58:18.664Z,326.25
2018-04-15T06:59:18.666Z,320.63
2018-04-15T07:00:18.626Z,320.63
2018-04-15T07:01:18.596Z,315.00
2018-04-15T07:02:18.596Z,303.75
2018-04-15T07:03:18.542Z,292.50
2018-04-15T07:04:18.550Z,258.75
2018-04-15T07:05:18.573Z,241.88
2018-04-15T07:06:18.494Z,230.63
2018-04-15T07:07:18.476Z,219.38
2018-04-15T07:08:18.485Z,213.75
2018-04-15T07:09:18.486Z,191.25
2018-04-15T07:10:18.448Z,180.00
2018-04-15T07:11:18.405Z,174.38
2018-04-15T07:12:18.408Z,168.75
2018-04-15T07:13:18.397Z,163.13
2018-04-15T07:14:18.359Z,163.13
2018-04-15T07:15:18.334Z,157.50
2018-04-15T07:16:18.345Z,157.50
2018-04-15T07:17:18.316Z,157.50
2018-04-15T07:18:18.254Z,157.50
2018-04-15T07:19:18.259Z,157.50
2018-04-15T07:20:18.251Z,157.50
2018-04-15T07:21:19.103Z,157.50
2018-04-15T07:22:18.194Z,157.50
2018-04-15T07:23:18.190Z,157.50
2018-04-15T07:24:18.148Z,163.13
2018-04-15T07:25:18.150Z,163.13
2018-04-15T07:26:18.112Z,174.38
2018-04-15T07:27:18.106Z,180.00
2018-04-15T07:28:18.106Z,185.63
2018-04-15T07:29:18.099Z,191.25
2018-04-15T07:30:18.057Z,196.88
2018-04-15T07:31:18.044Z,202.50
2018-04-15T07:32:18.044Z,213.75
2018-04-15T07:33:17.994Z,225.00
2018-04-15T07:34:17.990Z,236.25
2018-04-15T07:35:18.017Z,241.88
2018-04-15T07:36:17.985Z,253.13
2018-04-15T07:37:17.939Z,270.00
2018-04-15T07:38:17.904Z,275.63
2018-04-15T07:39:17.943Z,281.25
2018-04-15T07:40:17.871Z,292.50
2018-04-15T07:41:17.832Z,303.75
2018-04-15T07:42:17.825Z,320.63
2018-04-15T07:43:17.866Z,331.88
2018-04-15T07:44:17.813Z,337.50
2018-04-15T07:45:17.810Z,337.50
2018-04-15T07:46:17.785Z,343.13
2018-04-15T07:47:17.775Z,354.38
2018-04-15T07:48:17.749Z,360.00
2018-04-15T07:49:18.126Z,376.88
2018-04-15T07:50:17.672Z,410.63
2018-04-15T07:51:17.703Z,433.13
2018-04-15T07:52:17.688Z,416.25
2018-04-15T07:53:17.699Z,388.13
2018-04-15T07:54:17.586Z,365.63
2018-04-15T07:55:17.603Z,326.25
2018-04-15T07:56:17.634Z,309.38
2018-04-15T07:57:17.576Z,298.13
2018-04-15T07:58:17.531Z,303.75
2018-04-15T07:59:17.523Z,331.88
2018-04-15T08:00:17.588Z,348.75
2018-04-15T08:01:17.501Z,337.50
2018-04-15T08:02:17.729Z,315.00
2018-04-15T08:03:17.482Z,303.75
2018-04-15T08:04:17.490Z,286.88
2018-04-15T08:05:17.401Z,281.25
2018-04-15T08:06:17.416Z,275.63
2018-04-15T08:07:17.761Z,264.38
2018-04-15T08:08:17.474Z,258.75
2018-04-15T08:09:17.460Z,253.13
2018-04-15T08:10:17.391Z,247.50
2018-04-15T08:11:17.364Z,241.88
2018-04-15T08:12:17.288Z,230.63
2018-04-15T08:13:17.305Z,219.38
2018-04-15T08:14:17.438Z,219.38
2018-04-15T08:15:17.319Z,219.38
2018-04-15T08:16:17.235Z,225.00
2018-04-15T08:17:17.236Z,225.00
2018-04-15T08:18:17.207Z,230.63
2018-04-15T08:19:17.198Z,230.63
2018-04-15T08:20:17.219Z,236.25
2018-04-15T08:21:17.365Z,241.88
2018-04-15T08:22:17.101Z,247.50
2018-04-15T08:23:17.159Z,258.75
2018-04-15T08:24:17.137Z,270.00
2018-04-15T08:25:17.221Z,275.63
2018-04-15T08:26:17.049Z,275.63
2018-04-15T08:27:17.027Z,281.25
2018-04-15T08:28:16.999Z,281.25
2018-04-15T08:29:16.977Z,292.50
2018-04-15T08:30:17.015Z,298.13
2018-04-15T08:31:16.980Z,309.38
2018-04-15T08:32:17.053Z,326.25
2018-04-15T08:33:17.011Z,343.13
2018-04-15T08:34:16.986Z,376.88
2018-04-15T08:35:16.934Z,438.75
2018-04-15T08:36:16.908Z,540.00
2018-04-15T08:37:16.861Z,590.63
2018-04-15T08:38:16.817Z,675.00
2018-04-15T08:39:16.873Z,933.75
2018-04-15T08:40:16.826Z,1057.50
2018-04-15T08:41:16.828Z,1164.38
2018-04-15T08:42:16.805Z,1625.63
2018-04-15T08:43:16.787Z,1591.88
2018-04-15T08:44:16.799Z,916.88
2018-04-15T08:45:16.724Z,1001.25
2018-04-15T08:46:16.707Z,1462.50
2018-04-15T08:47:16.662Z,1344.38
2018-04-15T08:48:16.667Z,804.38
2018-04-15T08:49:16.638Z,776.25
2018-04-15T08:50:16.666Z,832.50
2018-04-15T08:51:16.631Z,1175.63
2018-04-15T08:52:16.593Z,1226.25
2018-04-15T08:53:16.609Z,1316.25
2018-04-15T08:54:16.616Z,1310.63
2018-04-15T08:55:16.564Z,1316.25
2018-04-15T08:56:16.620Z,1271.25
2018-04-15T08:57:16.557Z,1035.00
2018-04-15T08:58:16.509Z,883.13
2018-04-15T08:59:16.511Z,815.63
2018-04-15T09:00:16.512Z,810.00
2018-04-15T09:01:16.533Z,866.25
2018-04-15T09:02:16.512Z,1035.00
2018-04-15T09:03:16.429Z,1226.25
2018-04-15T09:04:16.470Z,1271.25
2018-04-15T09:05:16.433Z,1395.00
2018-04-15T09:06:16.412Z,1186.88
2018-04-15T09:07:16.401Z,1260.00
2018-04-15T09:08:16.386Z,1237.50
2018-04-15T09:09:16.410Z,1428.75
2018-04-15T09:10:16.365Z,1541.25
2018-04-15T09:11:16.431Z,1749.38
2018-04-15T09:12:18.265Z,2643.75
2018-04-15T09:13:16.307Z,1434.38
2018-04-15T09:14:16.351Z,1991.25
2018-04-15T09:15:16.316Z,2221.88
2018-04-15T09:16:16.271Z,2075.63
2018-04-15T09:17:16.363Z,2632.50
2018-04-15T09:18:16.402Z,1580.63
2018-04-15T09:19:16.262Z,2733.75
2018-04-15T09:20:16.262Z,2188.13
2018-04-15T09:21:16.227Z,2733.75
2018-04-15T09:22:16.234Z,2126.25
2018-04-15T09:23:16.249Z,1586.25
2018-04-15T09:24:16.197Z,1861.88
2018-04-15T09:25:16.167Z,2503.13
2018-04-15T09:26:16.221Z,2137.50
2018-04-15T09:27:16.186Z,1777.50
2018-04-15T09:28:16.184Z,1518.75
2018-04-15T09:29:16.141Z,1738.13
2018-04-15T09:30:16.125Z,3515.63
2018-04-15T09:31:16.124Z,3172.50
2018-04-15T09:32:16.129Z,2643.75
2018-04-15T09:33:16.145Z,3121.88
2018-04-15T09:34:16.113Z,2902.50
2018-04-15T09:35:16.106Z,2795.63
2018-04-15T09:36:16.109Z,2868.75
2018-04-15T09:37:16.094Z,2806.88
2018-04-15T09:38:16.098Z,1490.63
2018-04-15T09:39:16.087Z,1400.63
2018-04-15T09:40:16.042Z,1316.25
2018-04-15T09:41:16.071Z,2677.50
2018-04-15T09:42:16.044Z,2846.25
2018-04-15T09:43:16.061Z,2441.25
2018-04-15T09:44:16.026Z,1305.00
2018-04-15T09:45:16.020Z,2103.75
2018-04-15T09:46:16.020Z,1518.75
2018-04-15T09:47:16.009Z,2846.25
2018-04-15T09:48:16.030Z,1524.38
2018-04-15T09:49:16.019Z,2778.75
2018-04-15T09:50:16.009Z,2818.13
2018-04-15T09:51:15.978Z,2790.00
2018-04-15T09:52:16.011Z,2846.25
2018-04-15T09:53:16.013Z,2835.00
2018-04-15T09:54:15.972Z,2638.13
2018-04-15T09:55:15.967Z,2463.75
2018-04-15T09:56:15.956Z,2295.00
2018-04-15T09:57:15.957Z,2722.50
2018-04-15T09:58:16.001Z,2677.50
2018-04-15T09:59:16.021Z,2463.75
2018-04-15T10:00:15.950Z,2829.38
2018-04-15T10:01:15.940Z,2846.25
2018-04-15T10:02:15.953Z,2818.13
2018-04-15T10:03:15.961Z,2773.13
2018-04-15T10:04:15.934Z,2756.25
2018-04-15T10:05:15.979Z,2773.13
2018-04-15T10:06:16.095Z,2795.63
2018-04-15T10:07:15.975Z,2795.63
2018-04-15T10:08:15.944Z,2784.38
2018-04-15T10:09:15.956Z,2761.88
2018-04-15T10:10:15.941Z,2733.75
2018-04-15T10:11:15.991Z,2722.50
2018-04-15T10:12:15.987Z,2739.38
2018-04-15T10:13:15.945Z,2750.63
2018-04-15T10:14:15.930Z,2773.13
2018-04-15T10:15:15.942Z,2784.38
2018-04-15T10:16:15.953Z,2778.75
2018-04-15T10:17:15.929Z,2790.00
2018-04-15T10:18:15.935Z,2801.25
2018-04-15T10:19:15.942Z,2823.75
2018-04-15T10:20:15.967Z,2846.25
2018-04-15T10:21:15.966Z,2868.75
2018-04-15T10:22:15.954Z,2857.50
2018-04-15T10:23:15.955Z,2874.38
2018-04-15T10:24:15.987Z,2896.88
2018-04-15T10:25:15.928Z,2925.00
2018-04-15T10:26:15.922Z,2919.38
2018-04-15T10:27:15.925Z,2964.38
2018-04-15T10:28:15.933Z,2975.63
2018-04-15T10:29:15.927Z,2998.13
2018-04-15T10:30:15.949Z,3020.63
2018-04-15T10:31:15.982Z,3026.25
2018-04-15T10:32:15.934Z,3031.88
2018-04-15T10:33:15.953Z,3060.00
2018-04-15T10:34:16.257Z,3093.75
2018-04-15T10:35:15.966Z,3099.38
2018-04-15T10:36:15.975Z,3144.38
2018-04-15T10:37:15.942Z,3155.63
2018-04-15T10:38:15.951Z,3161.25
2018-04-15T10:39:15.979Z,3155.63
2018-04-15T10:40:15.970Z,3172.50
2018-04-15T10:41:16.013Z,3178.13
2018-04-15T10:42:15.956Z,3150.00
2018-04-15T10:43:15.984Z,3161.25
2018-04-15T10:44:15.946Z,3178.13
2018-04-15T10:45:15.964Z,3161.25
2018-04-15T10:46:15.973Z,3178.13
2018-04-15T10:47:15.981Z,3183.75
2018-04-15T10:48:15.951Z,3195.00
2018-04-15T10:49:15.971Z,3172.50
2018-04-15T10:50:15.939Z,3155.63
2018-04-15T10:51:15.945Z,3150.00
2018-04-15T10:52:15.969Z,3178.13
2018-04-15T10:53:16.269Z,3183.75
2018-04-15T10:54:15.954Z,3200.63
2018-04-15T10:55:15.961Z,3195.00
2018-04-15T10:56:15.970Z,3166.88
2018-04-15T10:57:16.011Z,3206.25
2018-04-15T10:58:15.991Z,3206.25
2018-04-15T10:59:15.977Z,3189.38
2018-04-15T11:00:15.966Z,3223.13
2018-04-15T11:01:16.061Z,3228.75
2018-04-15T11:02:16.215Z,3183.75
2018-04-15T11:03:16.011Z,3172.50
2018-04-15T11:04:15.996Z,3183.75
2018-04-15T11:05:15.986Z,3200.63
2018-04-15T11:06:15.984Z,3223.13
2018-04-15T11:07:15.991Z,3195.00
2018-04-15T11:08:15.994Z,3178.13
2018-04-15T11:09:16.004Z,3172.50
2018-04-15T11:10:16.196Z,3133.13
2018-04-15T11:11:16.013Z,3150.00
2018-04-15T11:12:15.998Z,3172.50
2018-04-15T11:13:16.044Z,3166.88
2018-04-15T11:14:15.994Z,3178.13
2018-04-15T11:15:16.076Z,3183.75
2018-04-15T11:16:16.008Z,3211.88
2018-04-15T11:17:16.032Z,3200.63
2018-04-15T11:18:16.017Z,3054.38
2018-04-15T11:19:16.011Z,3228.75
2018-04-15T11:20:16.030Z,3161.25
2018-04-15T11:21:16.025Z,3195.00
2018-04-15T11:22:16.003Z,3262.50
2018-04-15T11:23:16.052Z,3228.75
2018-04-15T11:24:16.039Z,3088.13
2018-04-15T11:25:16.030Z,3183.75
2018-04-15T11:26:16.038Z,3211.88
2018-04-15T11:27:16.014Z,3071.25
2018-04-15T11:28:16.059Z,3172.50
2018-04-15T11:29:16.008Z,3234.38
2018-04-15T11:30:16.046Z,3240.00
2018-04-15T11:31:16.031Z,3234.38
2018-04-15T11:32:16.043Z,3211.88
2018-04-15T11:33:16.076Z,3200.63
2018-04-15T11:34:16.339Z,3161.25
2018-04-15T11:35:16.054Z,3116.25
2018-04-15T11:36:16.153Z,3110.63
2018-04-15T11:37:16.069Z,3105.00
2018-04-15T11:38:16.026Z,3037.50
2018-04-15T11:39:16.046Z,2975.63
2018-04-15T11:40:16.048Z,2925.00
2018-04-15T11:41:16.082Z,2891.25
2018-04-15T11:42:16.058Z,2880.00
2018-04-15T11:43:16.096Z,2874.38
2018-04-15T11:44:16.099Z,2857.50
2018-04-15T11:45:16.133Z,2840.63
2018-04-15T11:46:16.118Z,2812.50
2018-04-15T11:47:16.065Z,2801.25
2018-04-15T11:48:16.084Z,2801.25
2018-04-15T11:49:16.109Z,2784.38
2018-04-15T11:50:16.075Z,2767.50
2018-04-15T11:51:16.068Z,2728.13
2018-04-15T11:52:16.054Z,2683.13
2018-04-15T11:53:16.126Z,2655.00
2018-04-15T11:54:16.078Z,2632.50
2018-04-15T11:55:16.096Z,2598.75
2018-04-15T11:56:16.091Z,2604.38
2018-04-15T11:57:16.059Z,2598.75
2018-04-15T11:58:16.108Z,2553.75
2018-04-15T11:59:16.118Z,2536.88
2018-04-15T12:00:16.146Z,2508.75
2018-04-15T12:01:16.083Z,2497.50
2018-04-15T12:02:16.385Z,2491.88
2018-04-15T12:03:16.081Z,2458.13
2018-04-15T12:04:16.186Z,2430.00
2018-04-15T12:05:16.088Z,2446.88
2018-04-15T12:06:16.085Z,2463.75
2018-04-15T12:07:16.087Z,2463.75
2018-04-15T12:08:16.101Z,2430.00
2018-04-15T12:09:16.264Z,2418.75
2018-04-15T12:10:16.146Z,2418.75
2018-04-15T12:11:16.065Z,2463.75
2018-04-15T12:12:16.081Z,2503.13
2018-04-15T12:13:16.086Z,2002.50
2018-04-15T12:14:16.385Z,2525.63
2018-04-15T12:15:16.082Z,1721.25
2018-04-15T12:16:16.104Z,2424.38
2018-04-15T12:17:16.109Z,2413.13
2018-04-15T12:18:16.082Z,2424.38
2018-04-15T12:19:16.085Z,2452.50
2018-04-15T12:20:16.115Z,2401.88
2018-04-15T12:21:16.108Z,2424.38
2018-04-15T12:22:16.090Z,2458.13
2018-04-15T12:23:16.105Z,2441.25
2018-04-15T12:24:16.111Z,2508.75
2018-04-15T12:25:16.071Z,2666.25
2018-04-15T12:26:16.098Z,3037.50
2018-04-15T12:27:16.082Z,3369.38
2018-04-15T12:28:16.078Z,3335.63
2018-04-15T12:29:16.095Z,3234.38
2018-04-15T12:30:16.107Z,3065.63
2018-04-15T12:31:16.097Z,3003.75
2018-04-15T12:32:16.075Z,2823.75
2018-04-15T12:33:16.093Z,3245.63
2018-04-15T12:34:16.078Z,3408.75
2018-04-15T12:35:16.660Z,3611.25
2018-04-15T12:36:16.087Z,3588.75
2018-04-15T12:37:16.118Z,3481.88
2018-04-15T12:38:16.094Z,3465.00
2018-04-15T12:39:16.082Z,3228.75
2018-04-15T12:40:16.077Z,3099.38